sensor_id;sensor_type;location;lat;lon;timestamp;P1;durP1;ratioP1;P2;durP2;ratioP2
36205;SDS011;22242;48.796;9.930;2022-09-17T00:01:36;2.10;;;1.67;;
36205;SDS011;22242;48.796;9.930;2022-09-17T00:04:03;3.17;;;1.75;;
36205;SDS011;22242;48.796;9.930;2022-09-17T00:06:31;2.55;;;1.42;;
36205;SDS011;22242;48.796;9.930;2022-09-17T00:09:00;2.00;;;1.45;;
36205;SDS011;22242;48.796;9.930;2022-09-17T00:11:28;3.33;;;1.77;;
36205;SDS011;22242;48.796;9.930;2022-09-17T00:13:57;1.55;;;1.45;;
36205;SDS011;22242;48.796;9.930;2022-09-17T00:16:28;1.80;;;1.70;;
36205;SDS011;22242;48.796;9.930;2022-09-17T00:18:57;3.38;;;1.70;;
36205;SDS011;22242;48.796;9.930;2022-09-17T00:21:24;2.17;;;1.67;;
36205;SDS011;22242;48.796;9.930;2022-09-17T00:23:52;4.18;;;1.70;;
36205;SDS011;22242;48.796;9.930;2022-09-17T00:26:20;1.98;;;1.80;;
36205;SDS011;22242;48.796;9.930;2022-09-17T00:28:48;3.28;;;1.70;;
36205;SDS011;22242;48.796;9.930;2022-09-17T00:31:15;3.40;;;2.10;;
36205;SDS011;22242;48.796;9.930;2022-09-17T00:33:44;3.88;;;2.10;;
36205;SDS011;22242;48.796;9.930;2022-09-17T00:36:11;3.47;;;2.10;;
36205;SDS011;22242;48.796;9.930;2022-09-17T00:38:38;3.83;;;2.00;;
36205;SDS011;22242;48.796;9.930;2022-09-17T00:41:05;4.95;;;2.08;;
36205;SDS011;22242;48.796;9.930;2022-09-17T00:43:34;5.03;;;2.63;;
36205;SDS011;22242;48.796;9.930;2022-09-17T00:46:09;4.43;;;2.00;;
36205;SDS011;22242;48.796;9.930;2022-09-17T00:48:45;4.93;;;3.17;;
36205;SDS011;22242;48.796;9.930;2022-09-17T00:51:13;3.33;;;2.20;;
36205;SDS011;22242;48.796;9.930;2022-09-17T00:53:46;2.42;;;2.22;;
36205;SDS011;22242;48.796;9.930;2022-09-17T00:56:14;3.13;;;2.83;;
36205;SDS011;22242;48.796;9.930;2022-09-17T00:58:44;2.60;;;2.40;;
36205;SDS011;22242;48.796;9.930;2022-09-17T01:01:13;3.65;;;2.53;;
36205;SDS011;22242;48.796;9.930;2022-09-17T01:03:39;4.15;;;2.70;;
36205;SDS011;22242;48.796;9.930;2022-09-17T01:06:09;4.70;;;2.60;;
36205;SDS011;22242;48.796;9.930;2022-09-17T01:08:46;2.92;;;2.22;;
36205;SDS011;22242;48.796;9.930;2022-09-17T01:11:29;3.42;;;2.80;;
36205;SDS011;22242;48.796;9.930;2022-09-17T01:14:13;4.07;;;2.58;;
36205;SDS011;22242;48.796;9.930;2022-09-17T01:16:51;2.95;;;2.40;;
36205;SDS011;22242;48.796;9.930;2022-09-17T01:19:34;2.45;;;1.95;;
36205;SDS011;22242;48.796;9.930;2022-09-17T01:22:23;3.53;;;2.33;;
36205;SDS011;22242;48.796;9.930;2022-09-17T01:25:01;4.45;;;2.10;;
36205;SDS011;22242;48.796;9.930;2022-09-17T01:28:11;6.47;;;2.55;;
36205;SDS011;22242;48.796;9.930;2022-09-17T01:31:05;2.35;;;1.88;;
36205;SDS011;22242;48.796;9.930;2022-09-17T01:33:47;1.77;;;1.52;;
36205;SDS011;22242;48.796;9.930;2022-09-17T01:36:21;1.70;;;1.60;;
36205;SDS011;22242;48.796;9.930;2022-09-17T01:39:01;2.00;;;1.90;;
36205;SDS011;22242;48.796;9.930;2022-09-17T01:41:55;3.97;;;1.80;;
36205;SDS011;22242;48.796;9.930;2022-09-17T01:44:28;2.65;;;1.33;;
36205;SDS011;22242;48.796;9.930;2022-09-17T01:47:03;4.70;;;1.50;;
36205;SDS011;22242;48.796;9.930;2022-09-17T01:49:36;2.33;;;1.48;;
36205;SDS011;22242;48.796;9.930;2022-09-17T01:52:05;2.72;;;1.40;;
36205;SDS011;22242;48.796;9.930;2022-09-17T01:54:36;2.78;;;1.38;;
36205;SDS011;22242;48.796;9.930;2022-09-17T01:57:08;2.65;;;1.10;;
36205;SDS011;22242;48.796;9.930;2022-09-17T01:59:40;1.60;;;1.10;;
36205;SDS011;22242;48.796;9.930;2022-09-17T02:02:12;2.05;;;1.52;;
36205;SDS011;22242;48.796;9.930;2022-09-17T02:04:44;2.63;;;1.13;;
36205;SDS011;22242;48.796;9.930;2022-09-17T02:07:15;3.40;;;1.27;;
36205;SDS011;22242;48.796;9.930;2022-09-17T02:09:47;1.38;;;1.23;;
36205;SDS011;22242;48.796;9.930;2022-09-17T02:12:20;3.05;;;1.40;;
36205;SDS011;22242;48.796;9.930;2022-09-17T02:14:55;1.75;;;1.13;;
36205;SDS011;22242;48.796;9.930;2022-09-17T02:17:28;3.38;;;1.58;;
36205;SDS011;22242;48.796;9.930;2022-09-17T02:19:57;2.00;;;1.50;;
36205;SDS011;22242;48.796;9.930;2022-09-17T02:22:27;1.30;;;1.20;;
36205;SDS011;22242;48.796;9.930;2022-09-17T02:27:33;1.45;;;1.20;;
36205;SDS011;22242;48.796;9.930;2022-09-17T02:30:07;3.17;;;1.42;;
36205;SDS011;22242;48.796;9.930;2022-09-17T02:32:36;2.72;;;1.73;;
36205;SDS011;22242;48.796;9.930;2022-09-17T02:35:03;3.97;;;1.48;;
36205;SDS011;22242;48.796;9.930;2022-09-17T02:37:31;1.60;;;1.50;;
36205;SDS011;22242;48.796;9.930;2022-09-17T02:39:58;1.65;;;1.55;;
36205;SDS011;22242;48.796;9.930;2022-09-17T02:42:27;2.10;;;1.23;;
36205;SDS011;22242;48.796;9.930;2022-09-17T02:44:59;3.10;;;1.67;;
36205;SDS011;22242;48.796;9.930;2022-09-17T02:50:28;1.88;;;1.77;;
36205;SDS011;22242;48.796;9.930;2022-09-17T02:53:09;2.50;;;2.00;;
36205;SDS011;22242;48.796;9.930;2022-09-17T02:55:49;2.47;;;1.52;;
36205;SDS011;22242;48.796;9.930;2022-09-17T02:58:25;5.03;;;1.88;;
36205;SDS011;22242;48.796;9.930;2022-09-17T03:00:56;2.42;;;2.00;;
36205;SDS011;22242;48.796;9.930;2022-09-17T03:03:29;8.13;;;1.90;;
36205;SDS011;22242;48.796;9.930;2022-09-17T03:06:00;4.22;;;1.60;;
36205;SDS011;22242;48.796;9.930;2022-09-17T03:08:27;4.20;;;2.13;;
36205;SDS011;22242;48.796;9.930;2022-09-17T03:10:57;1.92;;;1.83;;
36205;SDS011;22242;48.796;9.930;2022-09-17T03:13:24;4.45;;;2.55;;
36205;SDS011;22242;48.796;9.930;2022-09-17T03:15:51;4.68;;;1.60;;
36205;SDS011;22242;48.796;9.930;2022-09-17T03:18:18;2.90;;;2.15;;
36205;SDS011;22242;48.796;9.930;2022-09-17T03:20:46;2.72;;;1.92;;
36205;SDS011;22242;48.796;9.930;2022-09-17T03:23:13;4.47;;;1.98;;
36205;SDS011;22242;48.796;9.930;2022-09-17T03:25:40;4.60;;;2.00;;
36205;SDS011;22242;48.796;9.930;2022-09-17T03:28:09;5.55;;;2.25;;
36205;SDS011;22242;48.796;9.930;2022-09-17T03:30:36;4.10;;;1.73;;
36205;SDS011;22242;48.796;9.930;2022-09-17T03:33:03;4.97;;;1.90;;
36205;SDS011;22242;48.796;9.930;2022-09-17T03:35:30;6.18;;;1.60;;
36205;SDS011;22242;48.796;9.930;2022-09-17T03:37:58;5.15;;;1.80;;
36205;SDS011;22242;48.796;9.930;2022-09-17T03:40:25;4.00;;;1.60;;
36205;SDS011;22242;48.796;9.930;2022-09-17T03:42:53;2.38;;;1.35;;
36205;SDS011;22242;48.796;9.930;2022-09-17T03:45:20;8.68;;;1.70;;
36205;SDS011;22242;48.796;9.930;2022-09-17T03:47:47;4.40;;;1.42;;
36205;SDS011;22242;48.796;9.930;2022-09-17T03:50:14;3.20;;;1.30;;
36205;SDS011;22242;48.796;9.930;2022-09-17T03:52:41;5.50;;;1.50;;
36205;SDS011;22242;48.796;9.930;2022-09-17T03:55:09;4.40;;;1.60;;
36205;SDS011;22242;48.796;9.930;2022-09-17T03:57:36;8.55;;;1.83;;
36205;SDS011;22242;48.796;9.930;2022-09-17T04:00:03;7.68;;;1.73;;
36205;SDS011;22242;48.796;9.930;2022-09-17T04:02:36;3.95;;;1.30;;
36205;SDS011;22242;48.796;9.930;2022-09-17T04:05:04;5.95;;;1.58;;
36205;SDS011;22242;48.796;9.930;2022-09-17T04:07:32;6.60;;;1.90;;
36205;SDS011;22242;48.796;9.930;2022-09-17T04:09:59;5.15;;;1.50;;
36205;SDS011;22242;48.796;9.930;2022-09-17T04:12:27;6.32;;;1.73;;
36205;SDS011;22242;48.796;9.930;2022-09-17T04:14:54;3.72;;;1.75;;
36205;SDS011;22242;48.796;9.930;2022-09-17T04:17:21;4.22;;;1.80;;
36205;SDS011;22242;48.796;9.930;2022-09-17T04:19:48;5.68;;;1.75;;
36205;SDS011;22242;48.796;9.930;2022-09-17T04:22:15;4.57;;;1.92;;
36205;SDS011;22242;48.796;9.930;2022-09-17T04:24:41;2.55;;;1.58;;
36205;SDS011;22242;48.796;9.930;2022-09-17T04:27:08;4.00;;;1.60;;
36205;SDS011;22242;48.796;9.930;2022-09-17T04:29:36;2.53;;;1.42;;
36205;SDS011;22242;48.796;9.930;2022-09-17T04:32:04;6.63;;;2.08;;
36205;SDS011;22242;48.796;9.930;2022-09-17T04:34:31;5.03;;;1.70;;
36205;SDS011;22242;48.796;9.930;2022-09-17T04:36:58;4.70;;;1.70;;
36205;SDS011;22242;48.796;9.930;2022-09-17T04:39:25;4.93;;;1.60;;
36205;SDS011;22242;48.796;9.930;2022-09-17T04:41:52;5.55;;;1.50;;
36205;SDS011;22242;48.796;9.930;2022-09-17T04:44:19;7.90;;;1.73;;
36205;SDS011;22242;48.796;9.930;2022-09-17T04:46:48;5.38;;;1.45;;
36205;SDS011;22242;48.796;9.930;2022-09-17T04:49:14;11.20;;;1.70;;
36205;SDS011;22242;48.796;9.930;2022-09-17T04:51:41;5.38;;;1.73;;
36205;SDS011;22242;48.796;9.930;2022-09-17T04:54:08;6.25;;;1.50;;
36205;SDS011;22242;48.796;9.930;2022-09-17T04:56:35;6.20;;;2.00;;
36205;SDS011;22242;48.796;9.930;2022-09-17T04:59:02;5.72;;;1.83;;
36205;SDS011;22242;48.796;9.930;2022-09-17T05:01:28;9.23;;;2.00;;
36205;SDS011;22242;48.796;9.930;2022-09-17T05:03:57;4.90;;;1.77;;
36205;SDS011;22242;48.796;9.930;2022-09-17T05:06:24;7.28;;;1.50;;
36205;SDS011;22242;48.796;9.930;2022-09-17T05:08:50;4.63;;;1.10;;
36205;SDS011;22242;48.796;9.930;2022-09-17T05:11:17;7.35;;;1.75;;
36205;SDS011;22242;48.796;9.930;2022-09-17T05:13:44;5.55;;;1.63;;
36205;SDS011;22242;48.796;9.930;2022-09-17T05:16:11;4.82;;;1.50;;
36205;SDS011;22242;48.796;9.930;2022-09-17T05:18:38;4.25;;;1.88;;
36205;SDS011;22242;48.796;9.930;2022-09-17T05:21:06;8.05;;;1.77;;
36205;SDS011;22242;48.796;9.930;2022-09-17T05:23:33;7.57;;;1.60;;
36205;SDS011;22242;48.796;9.930;2022-09-17T05:26:00;5.82;;;1.45;;
36205;SDS011;22242;48.796;9.930;2022-09-17T05:28:27;6.50;;;1.77;;
36205;SDS011;22242;48.796;9.930;2022-09-17T05:30:57;3.55;;;1.60;;
36205;SDS011;22242;48.796;9.930;2022-09-17T05:33:24;4.00;;;1.30;;
36205;SDS011;22242;48.796;9.930;2022-09-17T05:35:51;10.45;;;1.50;;
36205;SDS011;22242;48.796;9.930;2022-09-17T05:38:20;7.07;;;1.60;;
36205;SDS011;22242;48.796;9.930;2022-09-17T05:40:47;6.82;;;2.00;;
36205;SDS011;22242;48.796;9.930;2022-09-17T05:43:14;7.15;;;1.38;;
36205;SDS011;22242;48.796;9.930;2022-09-17T05:45:41;6.65;;;1.83;;
36205;SDS011;22242;48.796;9.930;2022-09-17T05:48:09;9.02;;;1.35;;
36205;SDS011;22242;48.796;9.930;2022-09-17T05:50:37;6.32;;;1.70;;
36205;SDS011;22242;48.796;9.930;2022-09-17T05:53:06;10.40;;;1.92;;
36205;SDS011;22242;48.796;9.930;2022-09-17T05:55:36;4.93;;;1.55;;
36205;SDS011;22242;48.796;9.930;2022-09-17T05:58:10;6.18;;;1.60;;
36205;SDS011;22242;48.796;9.930;2022-09-17T06:00:37;5.55;;;1.60;;
36205;SDS011;22242;48.796;9.930;2022-09-17T06:03:05;3.95;;;1.83;;
36205;SDS011;22242;48.796;9.930;2022-09-17T06:05:32;9.43;;;1.95;;
36205;SDS011;22242;48.796;9.930;2022-09-17T06:07:58;4.93;;;1.60;;
36205;SDS011;22242;48.796;9.930;2022-09-17T06:10:25;3.92;;;1.83;;
36205;SDS011;22242;48.796;9.930;2022-09-17T06:12:57;5.60;;;1.70;;
36205;SDS011;22242;48.796;9.930;2022-09-17T06:15:25;5.28;;;1.67;;
36205;SDS011;22242;48.796;9.930;2022-09-17T06:17:52;7.47;;;1.90;;
36205;SDS011;22242;48.796;9.930;2022-09-17T06:20:19;8.68;;;1.83;;
36205;SDS011;22242;48.796;9.930;2022-09-17T06:22:46;5.28;;;1.80;;
36205;SDS011;22242;48.796;9.930;2022-09-17T06:25:13;9.77;;;2.95;;
36205;SDS011;22242;48.796;9.930;2022-09-17T06:27:40;8.35;;;2.53;;
36205;SDS011;22242;48.796;9.930;2022-09-17T06:30:08;4.03;;;1.50;;
36205;SDS011;22242;48.796;9.930;2022-09-17T06:32:36;7.82;;;1.58;;
36205;SDS011;22242;48.796;9.930;2022-09-17T06:35:03;9.00;;;2.15;;
36205;SDS011;22242;48.796;9.930;2022-09-17T06:37:31;5.25;;;1.80;;
36205;SDS011;22242;48.796;9.930;2022-09-17T06:40:00;10.20;;;3.33;;
36205;SDS011;22242;48.796;9.930;2022-09-17T06:42:28;7.57;;;1.88;;
36205;SDS011;22242;48.796;9.930;2022-09-17T06:44:55;7.30;;;2.20;;
36205;SDS011;22242;48.796;9.930;2022-09-17T06:47:24;6.07;;;1.90;;
36205;SDS011;22242;48.796;9.930;2022-09-17T06:49:51;8.80;;;1.77;;
36205;SDS011;22242;48.796;9.930;2022-09-17T06:52:18;11.70;;;2.65;;
36205;SDS011;22242;48.796;9.930;2022-09-17T06:54:45;8.02;;;2.00;;
36205;SDS011;22242;48.796;9.930;2022-09-17T06:57:12;8.95;;;2.17;;
36205;SDS011;22242;48.796;9.930;2022-09-17T06:59:39;8.77;;;2.42;;
36205;SDS011;22242;48.796;9.930;2022-09-17T07:02:07;7.70;;;2.20;;
36205;SDS011;22242;48.796;9.930;2022-09-17T07:04:35;10.88;;;2.15;;
36205;SDS011;22242;48.796;9.930;2022-09-17T07:07:02;6.78;;;1.70;;
36205;SDS011;22242;48.796;9.930;2022-09-17T07:09:30;11.80;;;3.13;;
36205;SDS011;22242;48.796;9.930;2022-09-17T07:11:57;11.57;;;3.15;;
36205;SDS011;22242;48.796;9.930;2022-09-17T07:14:24;8.30;;;2.53;;
36205;SDS011;22242;48.796;9.930;2022-09-17T07:16:51;9.15;;;2.30;;
36205;SDS011;22242;48.796;9.930;2022-09-17T07:19:18;8.10;;;2.20;;
36205;SDS011;22242;48.796;9.930;2022-09-17T07:21:48;7.03;;;2.22;;
36205;SDS011;22242;48.796;9.930;2022-09-17T07:24:14;9.23;;;2.00;;
36205;SDS011;22242;48.796;9.930;2022-09-17T07:26:41;3.30;;;1.77;;
36205;SDS011;22242;48.796;9.930;2022-09-17T07:29:08;9.75;;;2.53;;
36205;SDS011;22242;48.796;9.930;2022-09-17T07:31:36;3.60;;;1.83;;
36205;SDS011;22242;48.796;9.930;2022-09-17T07:34:03;4.93;;;2.25;;
36205;SDS011;22242;48.796;9.930;2022-09-17T07:36:30;5.53;;;1.80;;
36205;SDS011;22242;48.796;9.930;2022-09-17T07:38:58;8.88;;;2.70;;
36205;SDS011;22242;48.796;9.930;2022-09-17T07:41:25;7.15;;;2.42;;
36205;SDS011;22242;48.796;9.930;2022-09-17T07:43:52;6.43;;;2.15;;
36205;SDS011;22242;48.796;9.930;2022-09-17T07:46:20;4.00;;;2.30;;
36205;SDS011;22242;48.796;9.930;2022-09-17T07:48:47;5.40;;;2.55;;
36205;SDS011;22242;48.796;9.930;2022-09-17T07:51:15;5.30;;;2.30;;
36205;SDS011;22242;48.796;9.930;2022-09-17T07:53:42;5.20;;;2.53;;
36205;SDS011;22242;48.796;9.930;2022-09-17T07:56:11;6.15;;;1.95;;
36205;SDS011;22242;48.796;9.930;2022-09-17T07:58:38;7.25;;;2.45;;
36205;SDS011;22242;48.796;9.930;2022-09-17T08:01:07;12.07;;;2.67;;
36205;SDS011;22242;48.796;9.930;2022-09-17T08:03:35;6.60;;;2.58;;
36205;SDS011;22242;48.796;9.930;2022-09-17T08:06:03;6.50;;;2.45;;
36205;SDS011;22242;48.796;9.930;2022-09-17T08:08:32;4.50;;;2.40;;
36205;SDS011;22242;48.796;9.930;2022-09-17T08:11:01;5.85;;;2.30;;
36205;SDS011;22242;48.796;9.930;2022-09-17T08:13:30;5.97;;;1.80;;
36205;SDS011;22242;48.796;9.930;2022-09-17T08:15:57;6.88;;;2.10;;
36205;SDS011;22242;48.796;9.930;2022-09-17T08:18:25;4.43;;;2.00;;
36205;SDS011;22242;48.796;9.930;2022-09-17T08:20:55;3.92;;;1.92;;
36205;SDS011;22242;48.796;9.930;2022-09-17T08:23:23;5.60;;;1.95;;
36205;SDS011;22242;48.796;9.930;2022-09-17T08:25:51;4.05;;;1.90;;
36205;SDS011;22242;48.796;9.930;2022-09-17T08:28:19;2.92;;;1.90;;
36205;SDS011;22242;48.796;9.930;2022-09-17T08:30:47;5.28;;;2.13;;
36205;SDS011;22242;48.796;9.930;2022-09-17T08:33:15;4.43;;;1.88;;
36205;SDS011;22242;48.796;9.930;2022-09-17T08:35:42;2.28;;;1.90;;
36205;SDS011;22242;48.796;9.930;2022-09-17T08:38:09;3.25;;;1.75;;
36205;SDS011;22242;48.796;9.930;2022-09-17T08:40:39;2.63;;;1.65;;
36205;SDS011;22242;48.796;9.930;2022-09-17T08:43:14;3.50;;;2.05;;
36205;SDS011;22242;48.796;9.930;2022-09-17T08:45:44;2.00;;;1.70;;
36205;SDS011;22242;48.796;9.930;2022-09-17T08:48:19;6.65;;;1.90;;
36205;SDS011;22242;48.796;9.930;2022-09-17T08:50:47;5.80;;;1.50;;
36205;SDS011;22242;48.796;9.930;2022-09-17T08:53:24;2.97;;;1.80;;
36205;SDS011;22242;48.796;9.930;2022-09-17T08:56:01;2.30;;;1.50;;
36205;SDS011;22242;48.796;9.930;2022-09-17T08:58:39;2.50;;;1.40;;
36205;SDS011;22242;48.796;9.930;2022-09-17T09:01:24;4.47;;;2.42;;
36205;SDS011;22242;48.796;9.930;2022-09-17T09:04:02;4.03;;;3.15;;
36205;SDS011;22242;48.796;9.930;2022-09-17T09:06:41;3.30;;;3.00;;
36205;SDS011;22242;48.796;9.930;2022-09-17T09:09:12;5.93;;;2.30;;
36205;SDS011;22242;48.796;9.930;2022-09-17T09:11:42;3.92;;;2.05;;
36205;SDS011;22242;48.796;9.930;2022-09-17T09:14:12;4.78;;;2.17;;
36205;SDS011;22242;48.796;9.930;2022-09-17T09:16:46;5.95;;;2.38;;
36205;SDS011;22242;48.796;9.930;2022-09-17T09:19:17;5.90;;;2.22;;
36205;SDS011;22242;48.796;9.930;2022-09-17T09:21:50;6.70;;;2.35;;
36205;SDS011;22242;48.796;9.930;2022-09-17T09:24:29;7.28;;;2.95;;
36205;SDS011;22242;48.796;9.930;2022-09-17T09:27:08;5.00;;;2.40;;
36205;SDS011;22242;48.796;9.930;2022-09-17T09:29:43;6.15;;;2.33;;
36205;SDS011;22242;48.796;9.930;2022-09-17T09:32:23;10.35;;;2.90;;
36205;SDS011;22242;48.796;9.930;2022-09-17T09:34:59;5.00;;;2.55;;
36205;SDS011;22242;48.796;9.930;2022-09-17T09:37:32;5.85;;;3.08;;
36205;SDS011;22242;48.796;9.930;2022-09-17T09:40:12;9.45;;;3.03;;
36205;SDS011;22242;48.796;9.930;2022-09-17T09:42:48;6.80;;;2.30;;
36205;SDS011;22242;48.796;9.930;2022-09-17T09:45:30;9.55;;;3.22;;
36205;SDS011;22242;48.796;9.930;2022-09-17T09:48:09;9.20;;;3.33;;
36205;SDS011;22242;48.796;9.930;2022-09-17T09:50:46;7.72;;;3.60;;
36205;SDS011;22242;48.796;9.930;2022-09-17T09:53:21;4.75;;;2.67;;
36205;SDS011;22242;48.796;9.930;2022-09-17T09:56:01;6.72;;;3.17;;
36205;SDS011;22242;48.796;9.930;2022-09-17T09:58:39;11.02;;;3.75;;
36205;SDS011;22242;48.796;9.930;2022-09-17T10:01:09;7.20;;;4.15;;
36205;SDS011;22242;48.796;9.930;2022-09-17T10:03:41;11.20;;;4.95;;
36205;SDS011;22242;48.796;9.930;2022-09-17T10:06:10;9.23;;;3.10;;
36205;SDS011;22242;48.796;9.930;2022-09-17T10:08:39;10.55;;;2.55;;
36205;SDS011;22242;48.796;9.930;2022-09-17T10:11:16;7.63;;;2.30;;
36205;SDS011;22242;48.796;9.930;2022-09-17T10:13:46;7.13;;;2.38;;
36205;SDS011;22242;48.796;9.930;2022-09-17T10:16:14;7.30;;;2.20;;
36205;SDS011;22242;48.796;9.930;2022-09-17T10:18:44;6.10;;;1.88;;
36205;SDS011;22242;48.796;9.930;2022-09-17T10:21:17;4.82;;;1.90;;
36205;SDS011;22242;48.796;9.930;2022-09-17T10:23:46;7.75;;;2.00;;
36205;SDS011;22242;48.796;9.930;2022-09-17T10:26:19;6.97;;;2.50;;
36205;SDS011;22242;48.796;9.930;2022-09-17T10:28:50;7.05;;;1.75;;
36205;SDS011;22242;48.796;9.930;2022-09-17T10:31:18;3.55;;;1.85;;
36205;SDS011;22242;48.796;9.930;2022-09-17T10:33:51;7.55;;;2.20;;
36205;SDS011;22242;48.796;9.930;2022-09-17T10:39:17;4.80;;;2.13;;
36205;SDS011;22242;48.796;9.930;2022-09-17T10:41:52;6.85;;;1.95;;
36205;SDS011;22242;48.796;9.930;2022-09-17T10:44:21;7.10;;;2.38;;
36205;SDS011;22242;48.796;9.930;2022-09-17T10:46:51;9.48;;;2.60;;
36205;SDS011;22242;48.796;9.930;2022-09-17T10:49:22;9.25;;;2.33;;
36205;SDS011;22242;48.796;9.930;2022-09-17T10:52:10;5.93;;;2.10;;
36205;SDS011;22242;48.796;9.930;2022-09-17T10:55:03;7.25;;;1.83;;
36205;SDS011;22242;48.796;9.930;2022-09-17T10:57:46;4.00;;;1.38;;
36205;SDS011;22242;48.796;9.930;2022-09-17T11:00:41;4.95;;;1.38;;
36205;SDS011;22242;48.796;9.930;2022-09-17T11:06:21;8.45;;;1.50;;
36205;SDS011;22242;48.796;9.930;2022-09-17T11:09:02;4.25;;;1.52;;
36205;SDS011;22242;48.796;9.930;2022-09-17T11:11:42;3.63;;;1.45;;
36205;SDS011;22242;48.796;9.930;2022-09-17T11:14:26;4.57;;;1.48;;
36205;SDS011;22242;48.796;9.930;2022-09-17T11:17:07;7.35;;;1.70;;
36205;SDS011;22242;48.796;9.930;2022-09-17T11:19:44;4.13;;;1.50;;
36205;SDS011;22242;48.796;9.930;2022-09-17T11:22:22;5.20;;;1.30;;
36205;SDS011;22242;48.796;9.930;2022-09-17T11:24:57;7.32;;;1.42;;
36205;SDS011;22242;48.796;9.930;2022-09-17T11:27:42;5.55;;;1.60;;
36205;SDS011;22242;48.796;9.930;2022-09-17T11:30:18;3.97;;;1.33;;
36205;SDS011;22242;48.796;9.930;2022-09-17T11:32:52;7.00;;;1.60;;
36205;SDS011;22242;48.796;9.930;2022-09-17T11:35:31;7.33;;;1.53;;
36205;SDS011;22242;48.796;9.930;2022-09-17T11:38:04;7.65;;;1.50;;
36205;SDS011;22242;48.796;9.930;2022-09-17T11:40:36;8.32;;;1.55;;
36205;SDS011;22242;48.796;9.930;2022-09-17T11:43:12;5.35;;;1.05;;
36205;SDS011;22242;48.796;9.930;2022-09-17T11:45:47;6.10;;;1.80;;
36205;SDS011;22242;48.796;9.930;2022-09-17T11:48:22;4.43;;;1.20;;
36205;SDS011;22242;48.796;9.930;2022-09-17T11:50:57;4.85;;;1.40;;
36205;SDS011;22242;48.796;9.930;2022-09-17T11:53:33;6.50;;;1.42;;
36205;SDS011;22242;48.796;9.930;2022-09-17T11:56:07;3.40;;;1.25;;
36205;SDS011;22242;48.796;9.930;2022-09-17T11:58:41;2.15;;;1.00;;
36205;SDS011;22242;48.796;9.930;2022-09-17T12:01:12;4.00;;;1.60;;
36205;SDS011;22242;48.796;9.930;2022-09-17T12:03:48;1.98;;;1.20;;
36205;SDS011;22242;48.796;9.930;2022-09-17T12:06:20;2.67;;;1.27;;
36205;SDS011;22242;48.796;9.930;2022-09-17T12:08:58;4.47;;;1.50;;
36205;SDS011;22242;48.796;9.930;2022-09-17T12:11:29;2.63;;;1.17;;
36205;SDS011;22242;48.796;9.930;2022-09-17T12:14:02;2.25;;;0.93;;
36205;SDS011;22242;48.796;9.930;2022-09-17T12:16:35;4.32;;;1.42;;
36205;SDS011;22242;48.796;9.930;2022-09-17T12:19:08;4.95;;;1.13;;
36205;SDS011;22242;48.796;9.930;2022-09-17T12:21:41;4.32;;;2.15;;
36205;SDS011;22242;48.796;9.930;2022-09-17T12:24:13;3.78;;;2.00;;
36205;SDS011;22242;48.796;9.930;2022-09-17T12:26:52;2.72;;;1.40;;
36205;SDS011;22242;48.796;9.930;2022-09-17T12:29:29;2.00;;;1.48;;
36205;SDS011;22242;48.796;9.930;2022-09-17T12:32:21;2.13;;;0.90;;
36205;SDS011;22242;48.796;9.930;2022-09-17T12:35:06;1.23;;;0.70;;
36205;SDS011;22242;48.796;9.930;2022-09-17T12:37:45;2.28;;;0.80;;
36205;SDS011;22242;48.796;9.930;2022-09-17T12:40:25;2.50;;;0.63;;
36205;SDS011;22242;48.796;9.930;2022-09-17T12:43:04;1.23;;;0.50;;
36205;SDS011;22242;48.796;9.930;2022-09-17T12:45:44;1.27;;;0.50;;
36205;SDS011;22242;48.796;9.930;2022-09-17T12:48:38;0.30;;;0.30;;
36205;SDS011;22242;48.796;9.930;2022-09-17T12:51:28;0.70;;;0.30;;
36205;SDS011;22242;48.796;9.930;2022-09-17T12:54:35;0.95;;;0.30;;
36205;SDS011;22242;48.796;9.930;2022-09-17T12:57:27;0.95;;;0.60;;
36205;SDS011;22242;48.796;9.930;2022-09-17T13:00:03;0.50;;;0.50;;
36205;SDS011;22242;48.796;9.930;2022-09-17T13:02:38;0.95;;;0.30;;
36205;SDS011;22242;48.796;9.930;2022-09-17T13:05:20;1.37;;;0.50;;
36205;SDS011;22242;48.796;9.930;2022-09-17T13:08:17;1.65;;;0.60;;
36205;SDS011;22242;48.796;9.930;2022-09-17T13:11:20;0.60;;;0.40;;
36205;SDS011;22242;48.796;9.930;2022-09-17T13:14:03;2.08;;;0.50;;
36205;SDS011;22242;48.796;9.930;2022-09-17T13:16:37;1.15;;;0.52;;
36205;SDS011;22242;48.796;9.930;2022-09-17T13:19:11;0.55;;;0.50;;
36205;SDS011;22242;48.796;9.930;2022-09-17T13:21:50;4.15;;;0.90;;
36205;SDS011;22242;48.796;9.930;2022-09-17T13:24:20;4.85;;;1.17;;
36205;SDS011;22242;48.796;9.930;2022-09-17T13:26:49;4.90;;;0.90;;
36205;SDS011;22242;48.796;9.930;2022-09-17T13:32:46;3.58;;;1.23;;
36205;SDS011;22242;48.796;9.930;2022-09-17T13:38:13;8.23;;;2.22;;
36205;SDS011;22242;48.796;9.930;2022-09-17T13:40:40;2.25;;;1.15;;
36205;SDS011;22242;48.796;9.930;2022-09-17T13:43:08;1.13;;;0.60;;
36205;SDS011;22242;48.796;9.930;2022-09-17T13:48:42;2.80;;;0.77;;
36205;SDS011;22242;48.796;9.930;2022-09-17T13:54:08;0.25;;;0.20;;
36205;SDS011;22242;48.796;9.930;2022-09-17T13:56:37;0.63;;;0.30;;
36205;SDS011;22242;48.796;9.930;2022-09-17T13:59:07;2.72;;;0.70;;
36205;SDS011;22242;48.796;9.930;2022-09-17T14:04:33;1.05;;;0.65;;
36205;SDS011;22242;48.796;9.930;2022-09-17T14:07:33;0.90;;;0.50;;
36205;SDS011;22242;48.796;9.930;2022-09-17T14:10:27;0.77;;;0.47;;
36205;SDS011;22242;48.796;9.930;2022-09-17T14:16:00;1.25;;;0.70;;
36205;SDS011;22242;48.796;9.930;2022-09-17T14:18:36;0.52;;;0.45;;
36205;SDS011;22242;48.796;9.930;2022-09-17T14:21:12;2.10;;;0.70;;
36205;SDS011;22242;48.796;9.930;2022-09-17T14:23:44;2.50;;;0.80;;
36205;SDS011;22242;48.796;9.930;2022-09-17T14:26:17;2.33;;;0.98;;
36205;SDS011;22242;48.796;9.930;2022-09-17T14:28:52;4.38;;;1.63;;
36205;SDS011;22242;48.796;9.930;2022-09-17T14:31:27;3.72;;;0.80;;
36205;SDS011;22242;48.796;9.930;2022-09-17T14:34:02;6.03;;;1.25;;
36205;SDS011;22242;48.796;9.930;2022-09-17T14:36:32;3.05;;;1.00;;
36205;SDS011;22242;48.796;9.930;2022-09-17T14:39:03;3.60;;;1.52;;
36205;SDS011;22242;48.796;9.930;2022-09-17T14:41:37;2.83;;;1.60;;
36205;SDS011;22242;48.796;9.930;2022-09-17T14:44:10;2.42;;;0.88;;
36205;SDS011;22242;48.796;9.930;2022-09-17T14:46:41;2.80;;;0.70;;
36205;SDS011;22242;48.796;9.930;2022-09-17T14:49:18;2.30;;;0.98;;
36205;SDS011;22242;48.796;9.930;2022-09-17T14:51:47;4.53;;;0.80;;
36205;SDS011;22242;48.796;9.930;2022-09-17T14:54:15;2.22;;;0.93;;
36205;SDS011;22242;48.796;9.930;2022-09-17T14:56:54;2.92;;;1.10;;
36205;SDS011;22242;48.796;9.930;2022-09-17T14:59:26;4.30;;;1.27;;
36205;SDS011;22242;48.796;9.930;2022-09-17T15:01:59;2.95;;;1.10;;
36205;SDS011;22242;48.796;9.930;2022-09-17T15:04:28;1.88;;;1.05;;
36205;SDS011;22242;48.796;9.930;2022-09-17T15:07:05;1.98;;;1.10;;
36205;SDS011;22242;48.796;9.930;2022-09-17T15:09:33;1.58;;;0.70;;
36205;SDS011;22242;48.796;9.930;2022-09-17T15:11:59;3.70;;;0.70;;
36205;SDS011;22242;48.796;9.930;2022-09-17T15:14:27;2.08;;;0.82;;
36205;SDS011;22242;48.796;9.930;2022-09-17T15:16:56;1.05;;;0.80;;
36205;SDS011;22242;48.796;9.930;2022-09-17T15:19:26;0.90;;;0.73;;
36205;SDS011;22242;48.796;9.930;2022-09-17T15:21:58;1.50;;;0.80;;
36205;SDS011;22242;48.796;9.930;2022-09-17T15:24:32;0.82;;;0.60;;
36205;SDS011;22242;48.796;9.930;2022-09-17T15:27:07;1.90;;;1.02;;
36205;SDS011;22242;48.796;9.930;2022-09-17T15:29:37;1.67;;;0.60;;
36205;SDS011;22242;48.796;9.930;2022-09-17T15:32:10;4.78;;;1.15;;
36205;SDS011;22242;48.796;9.930;2022-09-17T15:34:39;3.75;;;0.80;;
36205;SDS011;22242;48.796;9.930;2022-09-17T15:37:14;2.70;;;1.15;;
36205;SDS011;22242;48.796;9.930;2022-09-17T15:39:45;5.68;;;1.48;;
36205;SDS011;22242;48.796;9.930;2022-09-17T15:42:19;1.45;;;1.10;;
36205;SDS011;22242;48.796;9.930;2022-09-17T15:44:49;2.60;;;1.20;;
36205;SDS011;22242;48.796;9.930;2022-09-17T15:47:35;2.38;;;0.95;;